Portada
METAR-TAF:

METAR-TAF

Aeroports :

Angeles, Filipines

latitud: 15-11N, longitud: 120-33E, altitud: 148 m

Observació

L'informe es va fer fa 1 hora i 14 minuts, a les 14:00 UTC
Vent 4 kt del Nord/Nord-Oest
Temperatura 28°C
Humitat 66%
Pressió 1013 hPa
Visibilitat 10 km o més
Escasses núvols a una alçada de 2000 ft

METAR: RPLC 311400Z 34004KT 9999 FEW020 28/21 Q1013 NOSIG RMK A2991

Hora: 23:14 (15:14 UTC)

Pronòstic

L'informe es va fer fa 4 hores i 14 minuts, a les 11:00 UTC
Pronòstic vàlid del 31 a les 12 UTC al 01 a les 18 UTC
Vent 6 kt del Est
Visibilitat 10 km o més
Escasses núvols a una alçada de 2000 ft
Cel ennuvolat a una alçada de 30000 ft
Temporalment
l' 31 a les 12 UTC al 31 a les 18 UTC
Vent 8 kt del Sud-Est
Núvols disperses a una alçada de 2000 ft
Cel ennuvolat a una alçada de 10000 ft

TAF: RPLC 311100Z 3112/0118 09006KT 9999 FEW020 BKN300 TX35/0106Z TN24/3122Z TEMPO 3112/3118 14008KT SCT020 BKN100

Observacions i pronòstics meteorològics de més de 4000 aeroports (METAR i TAF).

Les estacions disponibles són els punts grocs i vermells al mapa.

Posi el ratolí al punt desitjat per veure el nom de l'estació.

Feu clic per veure les observacions i els pronòstics meteorològics.

Per canviar el mapa: feu clic els botons verds amb una creu de color negre per apropar; al botó verd amb un guió per allunyar la imatge; o en les fletxes verdes per a mapes adjacents.


METAR-TAF: